Marion, TX (78124)

4:23 PM CDT on August 31, 2015 (GMT -0500)
APRSWXNET | | Change Station
CLOSE
Current Station
Personal Weather Station
Location: Marion, TX
Elevation: 669 ft
Nearby Weather Stations

Elev 669 ft 29.58 °N, 98.14 °W | Updated 30 minutes ago

Partly Cloudy
Partly Cloudy
93 °F
Feels Like 95 °F
N
2
Wind Variable Wind from SSE
Gusts 6.0 mph

Today
High -- | Low -- °F
--% Chance of Precip.
Yesterday
High -- | Low -- °F
Precip. -- in
7:09 AM 7:56 PM
Waning Gibbous, 93% visible
Pressure 29.93 in
Visibility 10.0 miles
Clouds Clear
Heat Index 95 °F
Dew Point 65 °F
Humidity 40%
Rainfall in
Snow Depth Not available.
UV 8 out of 12
Pollen 8.40 out of 12
Air Quality Not available.
Flu Activity Not available.
METAR KRND 312058Z AUTO 15008KT 10SM CLR 35/15 A2995 RMK AO2 SLP133 T03470154 57021
Pressure 29.93 in
Visibility 10.0 miles
Clouds Clear
Heat Index 95 °F
Dew Point 65 °F
Humidity 40%
Rainfall in
Snow Depth Not available.
UV 8 out of 12
Pollen 8.40 out of 12
Air Quality Not available.
Flu Activity Not available.
METAR KRND 312058Z AUTO 15008KT 10SM CLR 35/15 A2995 RMK AO2 SLP133 T03470154 57021
Nowcast | as of 3:46 PM CDT on August 31, 2015

Through 5 PM...isolated showers and thunderstorms will move to the northwest along the seabreeze across areas along and east of the I-35 corridor. Spotty rainfall amounts up to 3/4 inch can be expected. Stronger storms could produce wind gusts of up to 40 mph.

×

10-Day Weather Forecast

×

Almanac

Astronomy

Aug. 31, 2015 Rise Set
Actual Time
Civil Twilight
Nautical Twilight
Astronomical Twilight
Moon
Length of Visible Light
Length of Day
Tomorrow will be .
, % of the Moon is Illuminated

Today's Extremes

State Highs State Lows

Community

WunderPhotos

Upload Photos

1,851,374 photos uploaded!

WunderBlogs® & News

Nearby

Air Quality

  Air Quality AQ Index Pollutant
Not available.

Snow Depth

Station Depth Elevation

Earthquake Activity

City Distance Mag. Time & Date
Minimum magnitude displayed is 2.5.

Coastal Water Temperatures

Place Temperature

Stations

Nearby Weather Stations

Station Location Temp. Windchill Dew Point Humidity Wind Precip. Elev Updated Type